Latest Weather Observations for Frankston

IDV60801

Issued at 10:02 pm EDT Friday 6 March 2015 (issued every 30 minutes, with the page automatically refreshed every 10 minutes)

About weather observations | Map of weather stations | Latest weather observations for VIC | Other Formats
Station Details ID: 086371 Name: FRANKSTON AWS Lat: -38.15 Lon: 145.12 Height: 6.0 m
Data from the previous 72 hours. | See also: Recent months at Frankston
Date/Time
EDT
Temp
°C
App
Temp
°C
Dew
Point
Rel
Hum
%
Delta-T
°C
Wind Press
QNH
hPa
Press
MSL
hPa
Rain
since 9 am
mm
Dir
 
Spd
km/h
Gust
km/h
Spd
kts
Gust
kts
06/10:00pm 17.1 16.2 13.6 80 2.0 SW 11 19 6 10 - - -
06/09:30pm 17.0 16.3 13.3 79 2.1 SW 9 17 5 9 - - -
06/09:00pm 17.1 15.6 13.2 78 2.2 SW 13 19 7 10 - - -
06/08:30pm 17.2 15.3 13.1 77 2.3 SW 15 20 8 11 - - -
06/08:00pm 17.3 14.5 12.6 74 2.6 SW 19 28 10 15 - - -
06/07:30pm 17.6 14.9 12.9 74 2.6 SW 19 26 10 14 - - -
06/07:00pm 17.9 15.0 13.0 73 2.7 SW 20 32 11 17 - - -
06/06:30pm 17.7 14.4 12.8 73 2.7 SW 22 33 12 18 - - -
06/06:00pm 17.9 13.5 12.8 72 2.8 WSW 28 39 15 21 - - -
06/05:30pm 17.9 12.9 13.4 75 2.5 WSW 32 39 17 21 - - -
06/05:00pm 17.9 12.1 12.8 72 2.8 WSW 35 43 19 23 - - -
06/04:30pm 18.4 13.3 13.7 74 2.7 WSW 33 43 18 23 - - -
06/04:00pm 18.0 11.1 12.9 72 2.9 WSW 41 46 22 25 - - -
06/03:30pm 18.0 12.8 13.5 75 2.5 WSW 33 43 18 23 - - -
06/03:00pm 17.8 11.4 13.1 74 2.6 WSW 39 50 21 27 - - -
06/02:30pm 17.6 11.7 13.5 77 2.3 WSW 37 46 20 25 - - -
06/02:00pm 18.0 12.5 13.5 75 2.5 WSW 35 46 19 25 - - -
06/01:30pm 17.0 10.3 13.5 80 2.0 WSW 41 52 22 28 - - -
06/01:00pm 17.7 10.7 13.6 77 2.3 WSW 43 50 23 27 - - -
06/12:30pm 17.8 12.1 15.1 84 1.6 WSW 39 46 21 25 - - -
06/12:00pm 16.4 11.2 14.4 88 1.1 W 35 44 19 24 - - -
06/11:30am 16.3 10.6 14.1 87 1.2 W 37 43 20 23 - - -
06/11:00am 16.1 10.3 13.9 87 1.2 W 37 48 20 26 - - -
06/10:30am 16.0 10.2 14.0 88 1.1 W 37 44 20 24 - - -
06/10:00am 15.9 9.6 13.6 86 1.3 W 39 48 21 26 - - -
06/09:30am 15.8 9.1 13.3 85 1.4 W 41 50 22 27 - - -
06/09:00am 15.8 9.3 12.9 83 1.6 W 39 50 21 27 - - -
06/08:30am 15.9 8.9 12.6 81 1.8 W 41 50 22 27 - - -
06/08:00am 15.7 9.1 12.5 81 1.8 W 39 50 21 27 - - -
06/07:30am 15.4 8.5 11.6 78 2.0 W 39 46 21 25 - - -
06/07:00am 15.3 8.2 10.9 75 2.3 W 39 46 21 25 - - -
06/06:30am 15.7 8.3 11.3 75 2.4 W 41 52 22 28 - - -
06/06:00am 15.3 8.1 10.5 73 2.5 W 39 46 21 25 - - -
06/05:30am 15.7 8.3 11.1 74 2.5 W 41 50 22 27 - - -
06/05:00am 15.6 8.5 10.8 73 2.5 W 39 52 21 28 - - -
06/04:30am 15.7 7.8 10.7 72 2.7 WNW 43 54 23 29 - - -
06/04:00am 15.3 7.6 10.3 72 2.6 WNW 41 48 22 26 - - -
06/03:30am 15.0 6.8 9.8 71 2.7 WNW 43 54 23 29 - - -
06/03:00am 15.5 7.3 10.3 71 2.7 WNW 44 56 24 30 - - -
06/02:30am 15.2 7.7 9.6 69 2.9 W 39 50 21 27 - - -
06/02:00am 15.7 7.6 10.2 70 2.9 W 43 57 23 31 - - -
06/01:30am 15.3 6.9 9.0 66 3.2 WNW 43 52 23 28 - - -
06/01:00am 15.5 8.0 9.6 68 3.1 W 39 48 21 26 - - -
06/12:30am 15.3 6.7 9.0 66 3.2 W 44 56 24 30 - - -
06/12:00am 15.6 7.1 8.4 62 3.6 W 43 54 23 29 - - -
 
Date/Time
EDT
Temp
°C
App
Temp
°C
Dew
Point
Rel
Hum
%
Delta-T
°C
Wind Press
QNH
hPa
Press
MSL
hPa
Rain
since 9 am
mm
Dir
 
Spd
km/h
Gust
km/h
Spd
kts
Gust
kts
05/11:30pm 16.0 8.4 9.2 64 3.5 WNW 39 44 21 24 - - -
05/11:00pm 15.6 7.1 8.4 62 3.6 W 43 50 23 27 - - -
05/10:30pm 15.7 7.0 7.7 59 4.0 W 43 54 23 29 - - -
05/10:00pm 15.9 7.6 7.7 58 4.1 W 41 50 22 27 - - -
05/09:30pm 16.2 8.5 6.9 54 4.6 W 37 48 20 26 - - -
05/09:00pm 16.5 9.0 8.0 57 4.3 W 37 48 20 26 - - -
05/08:30pm 16.7 9.9 7.6 55 4.6 W 33 44 18 24 - - -
05/08:00pm 16.8 9.7 6.6 51 5.0 W 33 48 18 26 - - -
05/07:30pm 16.4 10.8 8.6 60 4.0 WSW 28 35 15 19 - - -
05/07:00pm 16.0 9.8 8.0 59 4.0 WSW 30 35 16 19 - - -
05/06:30pm 16.5 10.6 7.7 56 4.4 WSW 28 37 15 20 - - -
05/06:00pm 16.7 10.3 6.8 52 4.9 SW 30 43 16 23 - - -
05/05:30pm 16.2 9.0 6.1 51 4.9 WSW 33 43 18 23 - - -
05/05:00pm 16.5 10.0 6.3 51 5.0 WSW 30 35 16 19 - - -
05/04:30pm 16.3 10.5 6.4 52 4.8 SW 26 39 14 21 - - -
05/04:00pm 16.1 9.6 6.5 53 4.7 WSW 30 39 16 21 - - -
05/03:30pm 16.0 8.9 5.3 49 5.1 WSW 32 44 17 24 - - -
05/03:00pm 15.7 8.7 5.9 52 4.7 WSW 32 43 17 23 - - -
05/02:30pm 15.4 8.3 6.4 55 4.4 WSW 33 43 18 23 - - -
05/02:00pm 15.8 9.0 7.1 56 4.3 WSW 32 46 17 25 - - -
05/01:30pm 15.4 7.7 5.3 51 4.8 WSW 35 43 19 23 - - -
05/01:00pm 15.6 8.0 5.8 52 4.7 WSW 35 46 19 25 - - -
05/12:30pm 15.8 8.0 5.1 49 5.1 WSW 35 46 19 25 - - -
05/12:00pm 15.7 9.1 4.1 46 5.4 SW 28 44 15 24 - - -
05/11:37am 15.8 8.5 5.4 50 5.0 WSW 33 52 18 28 - - -
05/11:30am 15.5 8.1 3.9 46 5.3 SW 32 52 17 28 - - -
05/11:00am 14.8 9.6 5.6 54 4.4 SW 22 46 12 25 - - -
05/10:30am 14.1 7.6 6.7 61 3.6 SW 30 54 16 29 - - -
05/10:00am 15.3 7.3 5.5 52 4.7 SW 37 57 20 31 - - -
05/09:39am 14.4 6.0 5.7 56 4.1 SW 39 83 21 45 - - -
05/09:30am 14.7 7.3 4.1 49 4.9 SW 32 48 17 26 - - -
05/09:00am 13.8 6.0 8.2 69 2.8 SW 39 63 21 34 - - -
05/08:45am 14.6 7.4 5.1 53 4.5 SW 32 52 17 28 - - -
05/08:30am 14.7 5.2 4.7 51 4.7 WSW 44 61 24 33 - - -
05/08:00am 13.8 5.1 8.4 70 2.7 WSW 44 63 24 34 - - -
05/07:53am 15.1 7.6 6.1 55 4.3 WSW 35 54 19 29 - - -
05/07:41am 14.5 6.8 7.3 62 3.5 SW 37 48 20 26 - - -
05/07:36am 14.0 5.6 5.4 56 4.0 WSW 39 54 21 29 - - -
05/07:30am 14.2 5.5 8.4 68 2.9 WSW 44 63 24 34 - - -
05/07:12am 13.5 5.5 7.5 67 2.9 WSW 39 65 21 35 - - -
05/07:00am 15.0 5.3 5.8 54 4.4 WSW 46 61 25 33 - - -
05/06:30am 13.9 5.1 8.1 68 2.9 WSW 44 65 24 35 - - -
05/06:08am 15.2 7.1 7.0 58 4.0 SW 39 57 21 31 - - -
05/06:00am 15.1 4.8 6.4 56 4.2 WSW 50 65 27 35 - - -
05/05:30am 15.4 4.0 6.7 56 4.2 WSW 56 70 30 38 - - -
05/05:00am 15.7 3.3 6.7 55 4.4 WSW 61 78 33 42 - - -
05/04:30am 15.8 5.9 9.7 67 3.2 WSW 52 67 28 36 - - -
05/04:29am 15.8 5.9 9.9 68 3.1 WSW 52 67 28 36 - - -
05/04:00am 15.0 2.2 9.6 70 2.8 WSW 67 87 36 47 - - -
05/03:33am 14.9 4.2 10.3 74 2.4 WSW 57 76 31 41 - - -
05/03:30am 15.5 4.6 10.9 74 2.4 WSW 59 76 32 41 - - -
05/03:18am 14.7 4.2 10.9 78 2.0 WSW 57 76 31 41 - - -
05/03:07am 16.8 8.5 12.5 76 2.4 W 48 76 26 41 - - -
05/03:00am 16.7 8.8 12.7 77 2.2 W 46 61 25 33 - - -
05/02:30am 16.9 8.8 13.2 79 2.1 W 48 57 26 31 - - -
05/02:00am 17.3 9.2 13.2 77 2.3 W 48 65 26 35 - - -
05/01:30am 17.9 8.9 12.8 72 2.8 WNW 52 63 28 34 - - -
05/01:00am 18.2 10.6 12.4 69 3.2 WNW 44 56 24 30 - - -
05/12:30am 18.9 12.5 13.3 70 3.2 WNW 39 52 21 28 - - -
05/12:00am 19.5 14.1 12.3 63 4.0 W 32 37 17 20 - - -
 
Date/Time
EDT
Temp
°C
App
Temp
°C
Dew
Point
Rel
Hum
%
Delta-T
°C
Wind Press
QNH
hPa
Press
MSL
hPa
Rain
since 9 am
mm
Dir
 
Spd
km/h
Gust
km/h
Spd
kts
Gust
kts
04/11:30pm 19.8 14.3 12.3 62 4.2 W 33 39 18 21 - - -
04/11:00pm 20.2 12.6 11.9 59 4.6 W 43 54 23 29 - - -
04/10:30pm 20.4 14.8 13.4 64 4.0 W 35 43 19 23 - - -
04/10:00pm 20.4 15.6 12.9 62 4.3 W 30 37 16 20 - - -
04/09:30pm 20.9 15.7 13.4 62 4.3 W 33 41 18 22 - - -
04/09:00pm 21.4 16.9 12.5 57 5.0 W 28 35 15 19 - - -
04/08:30pm 21.5 16.7 11.8 54 5.4 W 28 33 15 18 - - -
04/08:00pm 21.6 16.6 12.2 55 5.3 W 30 35 16 19 - - -
04/07:30pm 21.6 18.3 12.7 57 5.1 W 22 35 12 19 - - -
04/07:00pm 20.7 18.4 12.9 61 4.4 WSW 17 24 9 13 - - -
04/06:30pm 20.5 18.8 12.5 60 4.5 WSW 13 19 7 10 - - -
04/06:00pm 20.4 20.3 12.1 59 4.6 W 4 6 2 3 - - -
04/05:30pm 20.4 20.1 11.6 57 4.9 WNW 4 6 2 3 - - -
04/05:00pm 20.0 19.3 11.5 58 4.7 W 6 7 3 4 - - -
04/04:30pm 19.6 18.0 11.4 59 4.5 WNW 11 19 6 10 - - -
04/04:00pm 19.3 16.7 10.8 58 4.6 NNW 15 19 8 10 - - -
04/03:30pm 19.0 16.4 10.8 59 4.4 N 15 20 8 11 - - -
04/03:00pm 18.8 16.5 10.4 58 4.5 NNW 13 17 7 9 - - -
04/02:30pm 18.5 15.3 10.1 58 4.5 NW 17 20 9 11 - - -
04/02:00pm 18.0 14.8 10.1 60 4.2 NW 17 20 9 11 - - -
04/01:30pm 17.9 14.6 11.0 64 3.7 NW 19 24 10 13 - - -
04/01:00pm 17.5 13.8 10.1 62 3.9 WNW 20 26 11 14 - - -
04/12:30pm 17.4 14.0 10.5 64 3.7 WNW 19 24 10 13 - - -
04/12:00pm 17.4 14.7 10.5 64 3.7 NW 15 20 8 11 - - -
04/11:30am 17.0 13.7 11.5 70 3.0 WNW 20 26 11 14 - - -
04/11:00am 16.7 12.8 12.0 74 2.6 W 24 32 13 17 - - -
04/10:30am 16.6 12.7 12.2 75 2.4 WNW 24 28 13 15 - - -
04/10:00am 16.4 12.7 11.6 73 2.6 WNW 22 28 12 15 - - -
04/09:30am 16.4 12.5 10.9 70 2.9 NW 22 30 12 16 - - -
04/09:00am 16.5 13.0 11.0 70 2.9 NW 20 28 11 15 - - -
04/08:30am 16.4 12.8 10.5 68 3.1 WNW 20 26 11 14 - - -
04/08:00am 16.7 13.6 10.3 66 3.4 WNW 17 22 9 12 - - -
04/07:30am 16.6 12.3 10.9 69 3.1 W 24 30 13 16 - - -
04/07:00am 16.8 12.6 11.1 69 3.1 W 24 30 13 16 - - -
04/06:30am 16.8 13.5 10.9 68 3.2 W 19 22 10 12 - - -
04/06:00am 16.9 13.6 11.0 68 3.2 W 19 24 10 13 - - -
04/05:30am 16.7 13.7 10.5 67 3.3 W 17 20 9 11 - - -
04/05:00am 17.0 14.6 11.3 69 3.1 W 15 20 8 11 - - -
04/04:30am 17.3 13.9 10.7 65 3.5 W 19 24 10 13 - - -
04/04:00am 17.5 16.5 12.2 71 2.9 WSW 9 20 5 11 - - -
04/03:30am 16.1 15.6 10.6 70 2.9 SSE 4 7 2 4 - - -
04/03:00am 16.1 15.2 10.6 70 2.9 SSE 6 7 3 4 - - -
04/02:30am 15.8 14.9 10.8 72 2.7 S 6 7 3 4 - - -
04/02:00am 15.4 14.4 11.0 75 2.3 SSE 7 9 4 5 - - -
04/01:30am 14.8 13.9 10.6 76 2.2 SSE 6 7 3 4 - - -
04/01:00am 15.1 14.2 10.7 75 2.3 SE 6 7 3 4 - - -
04/12:30am 15.5 14.6 10.7 73 2.5 SSE 6 6 3 3 - - -
04/12:00am 15.8 14.9 10.8 72 2.7 SSE 6 6 3 3 - - -
 
Date/Time
EDT
Temp
°C
App
Temp
°C
Dew
Point
Rel
Hum
%
Delta-T
°C
Wind Press
QNH
hPa
Press
MSL
hPa
Rain
since 9 am
mm
Dir
 
Spd
km/h
Gust
km/h
Spd
kts
Gust
kts
03/11:30pm 15.9 15.4 10.9 72 2.7 S 4 6 2 3 - - -
03/11:00pm 16.0 15.0 11.0 72 2.7 SSW 7 11 4 6 - - -
03/10:30pm 16.1 15.0 10.8 71 2.8 SSW 7 9 4 5 - - -

Other Formats:

Comma delimited format used in spreadsheet applications
http://www.bom.gov.au/fwo/IDV60801/IDV60801.94871.axf

JavaScript Object Notation format (JSON) in row-major order
http://www.bom.gov.au/fwo/IDV60801/IDV60801.94871.json